createdAt,value
2018-07-02T00:01:21.094Z,65.80
2018-07-02T00:04:05.271Z,65.70
2018-07-02T00:06:57.982Z,66.10
2018-07-02T00:09:34.233Z,67.10
2018-07-02T00:12:07.195Z,67.10
2018-07-02T00:15:00.599Z,67.70
2018-07-02T00:17:35.044Z,68.10
2018-07-02T00:22:59.769Z,68.60
2018-07-02T00:25:36.564Z,68.90
2018-07-02T00:28:07.029Z,69.10
2018-07-02T00:30:37.151Z,69.30
2018-07-02T00:33:07.160Z,68.60
2018-07-02T00:35:37.187Z,68.00
2018-07-02T00:38:08.456Z,68.20
2018-07-02T00:40:43.060Z,68.20
2018-07-02T00:46:09.803Z,67.90
2018-07-02T00:48:50.496Z,68.10
2018-07-02T00:51:33.672Z,68.50
2018-07-02T00:54:15.297Z,68.70
2018-07-02T00:56:47.010Z,68.70
2018-07-02T00:59:19.036Z,69.10
2018-07-02T01:02:00.546Z,68.30
2018-07-02T01:04:44.532Z,69.10
2018-07-02T01:10:28.653Z,69.20
2018-07-02T01:13:18.254Z,69.90
2018-07-02T01:15:59.516Z,70.70
2018-07-02T01:18:44.563Z,71.40
2018-07-02T01:21:15.234Z,71.50
2018-07-02T01:23:45.468Z,71.50
2018-07-02T01:29:11.993Z,71.10
2018-07-02T01:31:45.535Z,72.30
2018-07-02T01:34:15.751Z,72.90
2018-07-02T01:36:48.387Z,73.60
2018-07-02T01:39:31.527Z,73.80
2018-07-02T01:42:13.584Z,73.50
2018-07-02T01:47:39.478Z,73.90
2018-07-02T01:50:15.391Z,73.70
2018-07-02T01:52:45.671Z,74.80
2018-07-02T01:55:15.723Z,74.60
2018-07-02T01:57:45.667Z,75.20
2018-07-02T02:00:15.677Z,75.40
2018-07-02T02:02:45.523Z,75.70
2018-07-02T02:05:15.823Z,76.60
2018-07-02T02:07:45.831Z,76.70
2018-07-02T02:10:39.010Z,77.10
2018-07-02T02:13:14.147Z,77.40
2018-07-02T02:15:44.971Z,78.60
2018-07-02T02:18:15.858Z,79.20
2018-07-02T02:20:46.201Z,79.50
2018-07-02T02:26:04.892Z,80.50
2018-07-02T02:28:43.354Z,81.60
2018-07-02T02:31:15.194Z,81.00
2018-07-02T02:33:45.718Z,82.00
2018-07-02T02:36:15.623Z,80.90
2018-07-02T02:43:50.546Z,77.70
2018-07-02T02:46:42.927Z,78.30
2018-07-02T02:49:16.435Z,80.20
2018-07-02T02:51:46.436Z,81.00
2018-07-02T02:54:21.229Z,81.20
2018-07-02T02:56:55.038Z,83.60
2018-07-02T03:02:15.723Z,84.70
2018-07-02T03:04:49.319Z,83.60
2018-07-02T03:07:29.990Z,83.40
2018-07-02T03:10:17.299Z,83.60
2018-07-02T03:12:54.459Z,83.10
2018-07-02T03:15:25.516Z,83.90
2018-07-02T03:17:56.304Z,84.80
2018-07-02T03:20:26.317Z,86.00
2018-07-02T03:22:56.223Z,87.00
2018-07-02T03:25:26.118Z,87.90
2018-07-02T03:27:56.133Z,87.10
2018-07-02T03:30:26.500Z,87.50
2018-07-02T03:32:56.479Z,86.80
2018-07-02T03:35:26.500Z,87.40
2018-07-02T03:37:56.451Z,87.80
2018-07-02T03:40:26.329Z,87.60
2018-07-02T03:42:56.335Z,88.40
2018-07-02T03:45:26.279Z,88.60
2018-07-02T03:47:56.223Z,89.30
2018-07-02T03:55:55.344Z,89.30
2018-07-02T03:58:28.451Z,90.00
2018-07-02T04:01:08.839Z,90.30
2018-07-02T04:03:52.943Z,90.50
2018-07-02T04:06:25.743Z,90.70
2018-07-02T04:08:56.532Z,90.00
2018-07-02T04:11:37.493Z,90.00
2018-07-02T04:14:14.607Z,90.10
2018-07-02T04:16:46.247Z,88.70
2018-07-02T04:19:16.259Z,88.90
2018-07-02T04:21:46.655Z,89.20
2018-07-02T04:24:16.615Z,88.70
2018-07-02T04:26:53.280Z,88.60
2018-07-02T04:29:33.105Z,88.50
2018-07-02T04:32:13.055Z,88.80
2018-07-02T04:34:48.123Z,88.70
2018-07-02T04:37:26.634Z,89.00
2018-07-02T04:40:04.468Z,88.00
2018-07-02T04:42:43.075Z,88.40
2018-07-02T04:45:16.313Z,88.20
2018-07-02T04:47:47.818Z,87.80
2018-07-02T04:53:13.336Z,89.10
2018-07-02T04:55:46.206Z,87.70
2018-07-02T04:58:16.284Z,86.40
2018-07-02T05:00:46.364Z,83.40
2018-07-02T05:03:16.282Z,84.40
2018-07-02T05:05:46.279Z,84.60
2018-07-02T05:08:16.315Z,84.00
2018-07-02T05:10:54.176Z,83.30
2018-07-02T05:13:26.465Z,83.80
2018-07-02T05:20:53.505Z,83.70
2018-07-02T05:23:25.806Z,83.10
2018-07-02T05:25:56.620Z,83.20
2018-07-02T05:28:27.109Z,83.60
2018-07-02T05:34:04.728Z,84.20
2018-07-02T05:36:55.208Z,82.60
2018-07-02T05:39:26.113Z,81.70
2018-07-02T05:41:56.133Z,81.10
2018-07-02T06:02:06.167Z,80.20
2018-07-02T06:08:06.796Z,80.30
2018-07-02T06:13:25.073Z,78.50
2018-07-02T06:16:06.121Z,78.70
2018-07-02T06:18:48.315Z,78.70
2018-07-02T06:27:00.638Z,78.50
2018-07-02T06:29:36.164Z,78.80
2018-07-02T06:32:15.394Z,77.70
2018-07-02T06:34:52.615Z,77.20
2018-07-02T06:37:26.021Z,77.70
2018-07-02T06:46:23.020Z,77.00
2018-07-02T07:14:25.056Z,75.30
2018-07-02T07:17:10.660Z,75.60
2018-07-02T07:31:26.449Z,75.70
2018-07-02T07:37:58.009Z,71.60
2018-07-02T07:47:58.444Z,71.20
2018-07-02T07:50:37.378Z,70.40
2018-07-02T07:53:25.020Z,70.40
2018-07-02T07:55:54.812Z,69.80
2018-07-02T08:01:25.343Z,69.20
2018-07-02T08:03:55.310Z,69.00
2018-07-02T08:06:25.311Z,70.40
2018-07-02T08:08:55.143Z,71.90
2018-07-02T08:11:25.080Z,68.60
2018-07-02T08:13:55.028Z,70.20
2018-07-02T08:16:24.932Z,69.00
2018-07-02T08:18:54.861Z,68.50
2018-07-02T08:21:24.775Z,67.20
2018-07-02T08:23:54.576Z,65.30
2018-07-02T08:26:24.475Z,66.40
2018-07-02T08:28:54.591Z,65.90
2018-07-02T08:31:24.450Z,65.40
2018-07-02T08:33:54.359Z,65.30
2018-07-02T08:36:24.280Z,64.90
2018-07-02T08:38:54.263Z,63.10
2018-07-02T08:41:24.296Z,62.70
2018-07-02T08:43:54.671Z,60.90
2018-07-02T08:46:24.470Z,61.50
2018-07-02T08:48:54.443Z,61.20
2018-07-02T08:51:24.303Z,60.70
2018-07-02T08:53:54.223Z,60.70
2018-07-02T08:56:24.160Z,61.10
2018-07-02T08:58:54.107Z,60.80
2018-07-02T09:01:24.283Z,61.80
2018-07-02T09:03:54.122Z,58.30
2018-07-02T09:06:23.955Z,59.00
2018-07-02T09:08:53.848Z,58.10
2018-07-02T09:11:23.731Z,57.90
2018-07-02T09:13:54.967Z,58.60
2018-07-02T09:16:24.914Z,59.20
2018-07-02T09:18:54.814Z,59.30
2018-07-02T09:21:24.612Z,60.00
2018-07-02T09:23:54.502Z,59.30
2018-07-02T09:26:24.313Z,60.20
2018-07-02T09:28:54.541Z,59.50
2018-07-02T09:31:24.562Z,61.00
2018-07-02T09:33:54.481Z,59.90
2018-07-02T09:36:24.488Z,59.10
2018-07-02T09:38:54.281Z,60.10
2018-07-02T09:41:24.234Z,58.70
2018-07-02T09:43:54.083Z,57.90
2018-07-02T09:46:23.975Z,58.70
2018-07-02T09:48:53.901Z,58.40
2018-07-02T09:51:24.912Z,58.20
2018-07-02T09:53:54.913Z,57.00
2018-07-02T09:56:25.165Z,56.50
2018-07-02T09:58:55.062Z,56.40
2018-07-02T10:01:25.214Z,56.60
2018-07-02T10:03:55.482Z,55.20
2018-07-02T10:06:25.907Z,55.50
2018-07-02T10:08:55.813Z,55.50
2018-07-02T10:11:25.928Z,54.40
2018-07-02T10:13:55.920Z,56.50
2018-07-02T10:16:26.658Z,55.00
2018-07-02T10:18:58.056Z,54.20
2018-07-02T10:21:28.428Z,54.10
2018-07-02T10:23:58.610Z,54.20
2018-07-02T10:26:29.028Z,53.10
2018-07-02T10:28:59.257Z,54.50
2018-07-02T10:31:29.381Z,53.50
2018-07-02T10:33:59.639Z,53.80
2018-07-02T10:36:29.795Z,53.70
2018-07-02T10:38:59.833Z,51.90
2018-07-02T10:41:29.823Z,52.50
2018-07-02T10:44:00.746Z,53.50
2018-07-02T10:46:32.003Z,53.00
2018-07-02T10:49:02.015Z,52.10
2018-07-02T10:51:32.522Z,52.00
2018-07-02T10:54:02.576Z,52.80
2018-07-02T10:56:32.837Z,52.30
2018-07-02T10:59:02.971Z,51.10
2018-07-02T11:01:33.247Z,51.60
2018-07-02T11:04:03.362Z,53.20
2018-07-02T11:06:33.609Z,51.40
2018-07-02T11:09:03.815Z,51.60
2018-07-02T11:11:33.820Z,50.40
2018-07-02T11:14:04.489Z,50.50
2018-07-02T11:16:34.429Z,51.40
2018-07-02T11:19:04.445Z,50.30
2018-07-02T11:21:34.331Z,51.60
2018-07-02T11:24:04.487Z,50.80
2018-07-02T11:26:34.547Z,52.90
2018-07-02T11:29:04.589Z,51.90
2018-07-02T11:31:35.544Z,51.40
2018-07-02T11:34:05.394Z,50.90
2018-07-02T11:36:35.413Z,50.80
2018-07-02T11:39:08.717Z,50.80
2018-07-02T11:41:38.724Z,51.00
2018-07-02T11:44:08.876Z,50.30
2018-07-02T11:46:39.805Z,49.60
2018-07-02T11:49:10.676Z,50.80
2018-07-02T11:51:40.852Z,51.00
2018-07-02T11:54:11.090Z,50.10
2018-07-02T11:56:41.796Z,50.20
2018-07-02T11:59:12.049Z,51.10
2018-07-02T12:01:41.952Z,50.70
2018-07-02T12:04:12.366Z,50.00
2018-07-02T12:06:42.382Z,50.50
2018-07-02T12:09:13.020Z,48.50
2018-07-02T12:11:45.473Z,48.10
2018-07-02T12:14:15.619Z,50.30
2018-07-02T12:16:45.575Z,48.90
2018-07-02T12:19:15.647Z,49.00
2018-07-02T12:21:45.720Z,49.60
2018-07-02T12:24:15.740Z,50.40
2018-07-02T12:26:46.156Z,49.60
2018-07-02T12:29:16.044Z,49.70
2018-07-02T12:31:46.148Z,49.10
2018-07-02T12:34:16.431Z,47.40
2018-07-02T12:36:46.552Z,49.60
2018-07-02T12:39:17.167Z,48.70
2018-07-02T12:41:47.364Z,49.30
2018-07-02T12:44:17.752Z,49.60
2018-07-02T12:46:47.983Z,48.40
2018-07-02T12:49:18.337Z,49.10
2018-07-02T12:51:48.605Z,49.20
2018-07-02T12:54:20.915Z,47.90
2018-07-02T12:56:51.118Z,48.40
2018-07-02T12:59:21.358Z,48.50
2018-07-02T13:01:51.787Z,48.80
2018-07-02T13:04:21.979Z,48.20
2018-07-02T13:06:52.218Z,48.50
2018-07-02T13:09:23.179Z,47.80
2018-07-02T13:11:53.271Z,48.20
2018-07-02T13:14:23.899Z,48.80
2018-07-02T13:16:54.044Z,48.20
2018-07-02T13:19:24.079Z,48.40
2018-07-02T13:21:54.207Z,49.00
2018-07-02T13:24:24.197Z,48.20
2018-07-02T13:26:54.914Z,46.50
2018-07-02T13:29:26.027Z,48.70
2018-07-02T13:31:55.995Z,48.00
2018-07-02T13:34:25.907Z,46.50
2018-07-02T13:36:55.826Z,47.10
2018-07-02T13:39:25.824Z,46.00
2018-07-02T13:41:55.821Z,46.90
2018-07-02T13:44:25.718Z,46.50
2018-07-02T13:46:55.650Z,45.60
2018-07-02T13:49:25.751Z,45.80
2018-07-02T13:51:55.878Z,47.60
2018-07-02T13:54:25.950Z,46.80
2018-07-02T13:56:56.661Z,46.50
2018-07-02T13:59:30.072Z,47.00
2018-07-02T14:04:57.713Z,46.00
2018-07-02T14:18:41.709Z,45.80
2018-07-02T14:21:35.440Z,45.70
2018-07-02T14:24:09.128Z,45.00
2018-07-02T14:30:13.843Z,46.90
2018-07-02T14:39:02.905Z,46.00
2018-07-02T14:52:33.577Z,44.90
2018-07-02T14:55:03.997Z,46.10
2018-07-02T14:57:42.148Z,45.30
2018-07-02T15:19:40.383Z,44.20
2018-07-02T15:22:13.472Z,44.70
2018-07-02T15:24:47.499Z,43.90
2018-07-02T15:27:47.186Z,44.80
2018-07-02T15:30:17.462Z,45.50
2018-07-02T15:32:47.638Z,44.40
2018-07-02T15:43:27.232Z,44.50
2018-07-02T15:57:41.262Z,44.90
2018-07-02T16:09:39.381Z,43.80
2018-07-02T16:12:39.721Z,45.20
2018-07-02T16:36:48.347Z,43.00
2018-07-02T16:50:55.349Z,45.50
2018-07-02T16:53:43.824Z,45.80
2018-07-02T16:56:22.325Z,45.20
2018-07-02T17:25:28.231Z,45.60
2018-07-02T17:28:28.477Z,46.10
2018-07-02T17:41:14.043Z,46.80
2018-07-02T17:53:30.930Z,47.10
2018-07-02T18:02:56.036Z,48.40
2018-07-02T18:05:26.912Z,49.80
2018-07-02T18:10:54.412Z,50.20
2018-07-02T18:13:27.549Z,50.60
2018-07-02T18:15:57.563Z,49.80
2018-07-02T18:24:07.451Z,51.10
2018-07-02T18:26:37.390Z,50.70
2018-07-02T18:32:05.395Z,51.10
2018-07-02T18:34:50.069Z,50.80
2018-07-02T18:37:37.123Z,51.90
2018-07-02T18:40:17.132Z,52.10
2018-07-02T18:42:53.425Z,51.20
2018-07-02T18:45:24.503Z,51.40
2018-07-02T18:47:54.443Z,51.40
2018-07-02T18:50:29.993Z,51.60
2018-07-02T18:53:11.205Z,51.70
2018-07-02T19:05:46.832Z,52.70
2018-07-02T19:08:34.883Z,52.90
2018-07-02T19:11:09.758Z,53.50
2018-07-02T19:13:49.079Z,53.40
2018-07-02T19:16:31.567Z,53.00
2018-07-02T19:19:05.797Z,53.20
2018-07-02T19:21:45.180Z,52.70
2018-07-02T19:24:17.368Z,52.70
2018-07-02T19:26:53.213Z,53.30
2018-07-02T19:29:38.107Z,52.90
2018-07-02T19:32:33.280Z,53.30
2018-07-02T19:35:15.349Z,53.60
2018-07-02T19:37:45.198Z,53.10
2018-07-02T19:40:15.419Z,53.50
2018-07-02T19:43:00.092Z,53.40
2018-07-02T19:45:36.848Z,53.30
2018-07-02T19:48:07.574Z,53.20
2018-07-02T19:50:39.970Z,52.80
2018-07-02T19:53:20.813Z,52.90
2018-07-02T19:58:49.610Z,53.40
2018-07-02T20:01:19.707Z,52.60
2018-07-02T20:03:49.434Z,53.90
2018-07-02T20:06:19.939Z,53.50
2018-07-02T20:08:55.455Z,53.00
2018-07-02T20:11:26.422Z,52.70
2018-07-02T20:14:35.517Z,53.60
2018-07-02T20:17:25.043Z,52.70
2018-07-02T20:19:55.989Z,53.20
2018-07-02T20:22:25.904Z,53.90
2018-07-02T21:57:54.050Z,55.10
2018-07-02T22:00:28.203Z,59.90
2018-07-02T22:05:47.816Z,59.60
2018-07-02T22:08:18.450Z,60.40
2018-07-02T22:10:49.230Z,60.30
2018-07-02T22:13:19.177Z,59.40
2018-07-02T22:15:48.978Z,59.20
2018-07-02T22:18:18.992Z,59.70
2018-07-02T22:20:48.959Z,59.90
2018-07-02T22:23:18.941Z,60.30
2018-07-02T22:25:50.686Z,59.90
2018-07-02T22:28:25.365Z,59.80
2018-07-02T22:30:56.865Z,60.50
2018-07-02T22:33:27.860Z,60.70
2018-07-02T22:35:58.628Z,60.70
2018-07-02T22:38:29.039Z,61.10
2018-07-02T22:41:00.105Z,61.50
2018-07-02T22:43:30.058Z,61.50
2018-07-02T22:46:01.416Z,61.30
2018-07-02T22:48:34.048Z,61.80
2018-07-02T22:51:09.385Z,61.80
2018-07-02T22:53:41.935Z,61.60
2018-07-02T22:56:12.447Z,62.20
2018-07-02T22:58:42.815Z,64.30
2018-07-02T23:01:13.095Z,63.80
2018-07-02T23:03:43.271Z,63.50
2018-07-02T23:06:13.263Z,65.00
2018-07-02T23:08:43.408Z,65.00
2018-07-02T23:11:13.458Z,65.80
2018-07-02T23:13:45.704Z,66.30
2018-07-02T23:16:18.383Z,67.10
2018-07-02T23:18:49.121Z,67.10
2018-07-02T23:21:21.171Z,67.70
2018-07-02T23:23:52.944Z,69.60
2018-07-02T23:26:24.789Z,69.00
2018-07-02T23:28:56.536Z,69.20
2018-07-02T23:31:28.721Z,70.20
2018-07-02T23:33:59.041Z,70.60
2018-07-02T23:36:29.753Z,71.00
2018-07-02T23:39:02.075Z,71.00
2018-07-02T23:41:32.750Z,71.20
2018-07-02T23:44:05.057Z,71.80
2018-07-02T23:46:37.304Z,71.90
2018-07-02T23:49:08.374Z,71.60
2018-07-02T23:51:39.880Z,71.90
2018-07-02T23:54:11.372Z,72.00
2018-07-02T23:56:41.779Z,72.80
2018-07-02T23:59:12.113Z,73.30
